Time;durP1;ratioP1;P1;durP2;ratioP2;P2;SDS_P1;SDS_P2;PMS_P1;PMS_P2;Temp;Humidity;BMP_temperature;BMP_pressure;BME280_temperature;BME280_humidity;BME280_pressure;Samples;Min_cycle;Max_cycle;Signal;HPM_P1;HPM_P2
2022/01/13 00:00:12;;;;;;;4.90;3.72;;;;;;;20.27;26.40;101095.97;5088382;28;20142;-64
2022/01/13 00:02:37;;;;;;;5.65;3.67;;;;;;;20.28;26.53;101094.00;5088282;28;20044;-64
2022/01/13 00:05:04;;;;;;;5.85;3.63;;;;;;;20.28;26.60;101097.59;5088472;28;20048;-64
2022/01/13 00:07:29;;;;;;;5.32;3.67;;;;;;;20.27;26.54;101095.97;5088335;28;20044;-64
2022/01/13 00:09:56;;;;;;;5.60;4.00;;;;;;;20.28;26.26;101105.09;5088233;28;20056;-64
2022/01/13 00:12:24;;;;;;;5.28;3.97;;;;;;;20.27;26.53;101106.25;5088337;28;20093;-64
2022/01/13 00:25:12;;;;;;;5.25;3.60;;;;;;;20.28;26.54;101117.03;5088396;28;20044;-64
2022/01/13 00:27:39;;;;;;;5.13;3.92;;;;;;;20.27;26.58;101114.59;5087671;28;20083;-64
2022/01/13 00:30:13;;;;;;;4.95;3.83;;;;;;;20.27;26.43;101120.97;5088056;28;20051;-59
2022/01/13 00:32:38;;;;;;;5.95;4.07;;;;;;;20.28;26.59;101119.81;5088043;28;20043;-59
2022/01/13 00:35:04;;;;;;;4.97;3.50;;;;;;;20.28;26.57;101130.13;5088152;28;20396;-64
2022/01/13 00:37:29;;;;;;;5.55;3.88;;;;;;;20.24;26.35;101116.06;5087793;28;20145;-64
2022/01/13 00:39:55;;;;;;;5.18;3.60;;;;;;;20.26;26.55;101124.88;5090519;28;20579;-64
2022/01/13 00:42:22;;;;;;;5.10;3.90;;;;;;;20.27;26.63;101120.97;5091363;28;20490;-64
2022/01/13 00:44:49;;;;;;;4.97;3.30;;;;;;;20.25;26.54;101108.56;5090938;28;20515;-64
2022/01/13 00:47:14;;;;;;;5.57;3.58;;;;;;;20.27;26.56;101112.63;5091398;28;20036;-64
2022/01/13 00:49:40;;;;;;;5.10;3.65;;;;;;;20.26;26.54;101111.00;5091528;28;20097;-64
2022/01/13 00:52:05;;;;;;;4.93;3.72;;;;;;;20.24;26.49;101116.06;5091335;28;20455;-64
2022/01/13 00:54:33;;;;;;;5.47;3.70;;;;;;;20.25;26.47;101117.72;5073084;28;20048;-64
2022/01/13 00:56:58;;;;;;;4.97;3.63;;;;;;;20.25;26.43;101130.78;5091139;28;20055;-64
2022/01/13 00:59:24;;;;;;;5.25;3.40;;;;;;;20.25;26.60;101128.00;5091190;28;20043;-58
2022/01/13 01:01:51;;;;;;;4.85;3.55;;;;;;;20.25;26.53;101126.03;5091100;28;20138;-63
2022/01/13 01:04:18;;;;;;;5.43;3.60;;;;;;;20.24;26.58;101129.16;5091068;28;20076;-64
2022/01/13 01:06:44;;;;;;;4.68;3.22;;;;;;;20.25;26.52;101125.22;5091044;28;20098;-64
2022/01/13 01:09:15;;;;;;;5.00;3.53;;;;;;;20.25;26.54;101122.44;5090828;28;20044;-64
2022/01/13 01:11:41;;;;;;;4.53;3.30;;;;;;;20.23;26.64;101127.53;5090898;28;20400;-63
2022/01/13 01:14:08;;;;;;;4.25;3.10;;;;;;;20.22;26.46;101115.59;5090933;28;20047;-63
2022/01/13 01:16:36;;;;;;;4.43;3.15;;;;;;;20.22;26.64;101123.94;5072595;28;20385;-59
2022/01/13 01:19:07;;;;;;;4.70;3.30;;;;;;;20.21;26.60;101119.50;5090457;28;20486;-58
2022/01/13 01:22:02;;;;;;;3.90;2.60;;;;;;;20.22;26.52;101117.56;5090899;28;20051;-63
2022/01/13 01:26:55;;;;;;;4.57;3.25;;;;;;;20.22;26.59;101115.59;5090870;28;20147;-63
2022/01/13 01:31:51;;;;;;;4.03;3.10;;;;;;;20.20;26.73;101126.19;5090843;28;20052;-63
2022/01/13 01:36:47;;;;;;;4.43;3.22;;;;;;;20.21;26.53;101138.94;5090668;28;20055;-63
2022/01/13 01:39:14;;;;;;;4.47;3.00;;;;;;;20.20;26.54;101131.75;5090266;28;20046;-64
2022/01/13 01:41:43;;;;;;;4.72;3.20;;;;;;;20.19;26.63;101135.69;5090488;28;20047;-63
2022/01/13 01:44:30;;;;;;;4.65;3.38;;;;;;;20.16;26.64;101113.31;5090679;28;20392;-63
2022/01/13 01:46:58;;;;;;;4.43;3.05;;;;;;;20.15;26.62;101120.03;5090439;28;20523;-63
2022/01/13 01:49:25;;;;;;;4.10;3.00;;;;;;;20.19;26.67;101126.53;5090359;28;20068;-58
2022/01/13 01:51:53;;;;;;;4.65;3.58;;;;;;;20.18;26.58;101133.25;5089556;28;20064;-63
2022/01/13 01:54:19;;;;;;;4.43;3.10;;;;;;;20.16;26.56;101135.53;5090332;28;20051;-63
2022/01/13 01:56:45;;;;;;;4.80;3.22;;;;;;;20.17;26.53;101138.00;5090127;28;20040;-63
2022/01/13 01:59:16;;;;;;;4.20;3.13;;;;;;;20.18;26.46;101139.63;5090240;28;20040;-63
2022/01/13 02:01:43;;;;;;;3.88;2.72;;;;;;;20.18;26.55;101144.34;5090214;28;20052;-63
2022/01/13 02:04:09;;;;;;;4.18;3.00;;;;;;;20.16;26.44;101144.69;5090322;28;20043;-63
2022/01/13 02:06:37;;;;;;;4.45;3.15;;;;;;;20.16;26.40;101133.59;5090157;28;20462;-63
2022/01/13 02:09:08;;;;;;;4.72;3.47;;;;;;;20.17;26.56;101142.72;5090243;28;20040;-63
2022/01/13 02:11:41;;;;;;;4.22;3.17;;;;;;;20.16;26.32;101139.13;5090189;28;20036;-63
2022/01/13 02:17:14;;;;;;;4.90;3.10;;;;;;;20.16;26.55;101143.88;5070131;28;20086;-63
2022/01/13 02:19:44;;;;;;;4.10;2.90;;;;;;;20.16;26.43;101130.00;5069791;28;20488;-63
2022/01/13 02:22:10;;;;;;;4.32;3.00;;;;;;;20.16;26.48;101133.59;5069906;28;20090;-64
2022/01/13 02:24:36;;;;;;;5.13;3.47;;;;;;;20.17;26.53;101134.41;5037691;28;20041;-64
2022/01/13 02:27:03;;;;;;;4.22;3.05;;;;;;;20.16;26.44;101133.59;5069666;28;20049;-63
2022/01/13 02:29:28;;;;;;;4.50;3.17;;;;;;;20.13;26.37;101137.00;5069789;28;20080;-63
2022/01/13 02:31:54;;;;;;;4.80;3.25;;;;;;;20.16;26.41;101141.91;5069801;28;20123;-63
2022/01/13 02:34:20;;;;;;;4.38;3.20;;;;;;;20.17;26.42;101142.72;5069587;28;20037;-64
2022/01/13 02:36:49;;;;;;;4.07;2.95;;;;;;;20.17;26.37;101148.28;5069710;28;20043;-64
2022/01/13 02:39:14;;;;;;;5.05;3.25;;;;;;;20.17;26.36;101148.28;5069628;28;20439;-64
2022/01/13 02:41:40;;;;;;;4.70;3.20;;;;;;;20.15;26.24;101156.97;5069487;28;20045;-64
2022/01/13 02:44:15;;;;;;;4.05;2.78;;;;;;;20.14;26.32;101155.28;5069635;28;20452;-64
2022/01/13 02:49:09;;;;;;;3.92;2.78;;;;;;;20.16;26.27;101155.00;5069732;28;20133;-64
2022/01/13 02:51:35;;;;;;;6.00;3.40;;;;;;;20.15;26.39;101154.19;5069732;28;20519;-64
2022/01/13 02:54:02;;;;;;;3.90;2.70;;;;;;;20.15;26.36;101156.97;5069630;28;20055;-64
2022/01/13 02:56:28;;;;;;;4.63;3.10;;;;;;;20.14;26.30;101149.75;5069641;28;20036;-64
2022/01/13 02:58:53;;;;;;;3.80;2.60;;;;;;;20.15;26.29;101142.25;5069425;28;20075;-64
2022/01/13 03:01:19;;;;;;;4.10;2.78;;;;;;;20.14;26.41;101154.47;5069266;28;20059;-64
2022/01/13 03:03:45;;;;;;;4.15;2.78;;;;;;;20.13;26.28;101153.66;5069502;28;20095;-64
2022/01/13 03:06:13;;;;;;;3.85;2.70;;;;;;;20.13;26.34;101153.66;5069481;28;20101;-64
2022/01/13 03:08:43;;;;;;;4.32;2.80;;;;;;;20.13;26.31;101150.88;5069352;28;20064;-64
2022/01/13 03:11:09;;;;;;;4.35;2.97;;;;;;;20.13;26.39;101141.75;5069050;28;20052;-59
2022/01/13 03:13:35;;;;;;;3.67;2.65;;;;;;;20.13;26.39;101142.56;5068945;28;20052;-59
2022/01/13 03:16:08;;;;;;;5.38;3.38;;;;;;;20.12;26.39;101135.38;5069149;28;20041;-58
2022/01/13 03:18:34;;;;;;;3.58;2.78;;;;;;;20.13;26.37;101145.34;5069003;28;20407;-59
2022/01/13 03:21:00;;;;;;;4.22;2.83;;;;;;;20.13;26.39;101139.78;5068946;28;20056;-58
2022/01/13 03:23:25;;;;;;;3.63;2.42;;;;;;;20.13;26.41;101142.56;5069034;28;20044;-59
2022/01/13 03:25:51;;;;;;;3.80;2.80;;;;;;;20.13;26.34;101137.00;5068831;28;20454;-59
2022/01/13 03:28:28;;;;;;;4.20;2.90;;;;;;;20.13;26.46;101137.00;5068864;28;20068;-59
2022/01/13 03:30:53;;;;;;;3.65;2.70;;;;;;;20.13;26.59;101138.97;5068818;28;20048;-59
2022/01/13 03:33:19;;;;;;;4.00;2.70;;;;;;;20.13;26.35;101138.97;5068723;28;20047;-59
2022/01/13 03:35:45;;;;;;;4.20;2.85;;;;;;;20.13;26.29;101136.19;5069131;28;20506;-58
2022/01/13 03:38:10;;;;;;;4.35;2.90;;;;;;;20.12;26.34;101138.16;5068871;28;20047;-58
2022/01/13 03:40:36;;;;;;;4.05;2.70;;;;;;;20.12;26.39;101137.34;5069202;28;20458;-58
2022/01/13 03:43:03;;;;;;;3.63;2.50;;;;;;;20.10;26.31;101136.84;5068918;28;20036;-58
2022/01/13 03:45:28;;;;;;;3.97;2.90;;;;;;;20.12;26.32;101142.88;5068884;28;20376;-58
2022/01/13 03:47:55;;;;;;;4.10;2.92;;;;;;;20.12;26.31;101143.72;5068672;28;20048;-58
2022/01/13 03:50:20;;;;;;;3.80;2.67;;;;;;;20.12;26.38;101145.66;5068511;28;20501;-63
2022/01/13 03:52:59;;;;;;;3.67;2.60;;;;;;;20.11;26.50;101149.59;5068474;28;20054;-64
2022/01/13 03:55:30;;;;;;;3.35;2.42;;;;;;;20.11;26.40;101144.03;5068408;28;20641;-64
2022/01/13 03:58:17;;;;;;;3.63;2.65;;;;;;;20.10;26.40;101147.97;5068525;28;20044;-59
2022/01/13 04:01:20;;;;;;;3.90;2.70;;;;;;;20.10;26.48;101153.53;5068200;28;20095;-59
2022/01/13 04:03:45;;;;;;;4.03;2.60;;;;;;;20.09;26.32;101147.16;5068419;28;20075;-58
2022/01/13 04:06:11;;;;;;;3.55;2.60;;;;;;;20.09;26.36;101147.16;5068408;28;20226;-63
2022/01/13 04:08:37;;;;;;;3.80;2.50;;;;;;;20.06;26.26;101153.34;5068317;28;20044;-64
2022/01/13 04:11:06;;;;;;;3.67;2.40;;;;;;;20.09;26.32;101149.13;5068602;28;20045;-63
2022/01/13 04:13:55;;;;;;;3.60;2.53;;;;;;;20.08;26.35;101144.72;5068080;28;20139;-64
2022/01/13 04:16:27;;;;;;;3.92;2.60;;;;;;;20.06;26.39;101142.22;5068645;28;20492;-63
2022/01/13 04:18:57;;;;;;;4.28;2.60;;;;;;;20.08;26.36;101145.53;5068580;28;20496;-63
2022/01/13 04:21:23;;;;;;;3.05;2.30;;;;;;;20.08;26.32;101144.72;5068466;28;20080;-59
2022/01/13 04:23:49;;;;;;;3.83;2.85;;;;;;;20.05;26.25;101138.63;5068493;28;20072;-58
2022/01/13 04:26:18;;;;;;;3.50;2.50;;;;;;;20.06;26.34;101143.03;5068439;28;20060;-59
2022/01/13 04:28:44;;;;;;;3.70;2.60;;;;;;;20.05;26.25;101135.88;5068403;28;20068;-64
2022/01/13 04:31:10;;;;;;;3.83;2.70;;;;;;;20.06;26.32;101134.72;5068391;28;20102;-64
2022/01/13 04:33:36;;;;;;;3.80;2.55;;;;;;;20.07;26.40;101143.88;5068278;28;20045;-59
2022/01/13 04:36:04;;;;;;;3.67;2.30;;;;;;;20.05;26.33;101140.59;5068382;28;20500;-64
2022/01/13 04:38:29;;;;;;;3.15;2.03;;;;;;;20.07;26.40;101138.31;5066904;28;20457;-59
2022/01/13 04:40:55;;;;;;;4.22;2.67;;;;;;;20.07;26.32;101135.53;5068250;28;20556;-59
2022/01/13 04:43:23;;;;;;;3.70;2.70;;;;;;;20.06;26.29;101143.03;5068398;28;20409;-59
2022/01/13 04:45:49;;;;;;;3.63;2.35;;;;;;;20.07;26.37;101143.88;5068259;28;20541;-59
2022/01/13 04:48:15;;;;;;;3.40;2.40;;;;;;;20.07;26.15;101143.88;5068183;28;20090;-64
2022/01/13 04:50:41;;;;;;;3.80;2.60;;;;;;;20.06;26.40;101137.50;5068209;28;20457;-64
2022/01/13 04:53:07;;;;;;;3.67;2.47;;;;;;;20.06;26.24;101136.69;5068146;28;20083;-64
2022/01/13 04:55:35;;;;;;;3.90;2.45;;;;;;;20.06;26.32;101137.50;5068013;28;20088;-64
2022/01/13 04:58:01;;;;;;;3.38;2.40;;;;;;;20.06;26.12;101136.69;5068125;28;20483;-64
2022/01/13 05:00:28;;;;;;;3.40;2.28;;;;;;;20.06;26.16;101148.59;5067694;28;20132;-59
2022/01/13 05:02:54;;;;;;;4.38;2.60;;;;;;;20.05;26.18;101151.72;5067879;28;20073;-59
2022/01/13 05:05:19;;;;;;;3.53;2.38;;;;;;;20.05;26.21;101144.19;5067758;28;20622;-59
2022/01/13 05:07:45;;;;;;;3.85;2.50;;;;;;;20.05;26.35;101146.97;5067755;28;20110;-60
2022/01/13 05:10:11;;;;;;;3.30;2.42;;;;;;;20.06;26.15;101147.78;5067879;28;20516;-59
2022/01/13 05:12:52;;;;;;;3.40;2.47;;;;;;;20.05;26.37;101160.06;5067779;28;20551;-59
2022/01/13 05:15:22;;;;;;;3.30;2.40;;;;;;;20.05;26.24;101157.28;5067741;28;20076;-59
2022/01/13 05:20:17;;;;;;;4.25;2.80;;;;;;;20.04;26.26;101167.56;5067751;28;20094;-59
2022/01/13 05:22:43;;;;;;;3.78;2.60;;;;;;;20.02;26.26;101172.63;5067772;28;20413;-57
2022/01/13 05:25:09;;;;;;;3.40;2.30;;;;;;;20.02;26.31;101175.41;5067737;28;20527;-57
2022/01/13 05:27:34;;;;;;;3.40;2.33;;;;;;;20.02;26.36;101164.31;5071079;28;20072;-58
2022/01/13 05:30:02;;;;;;;3.92;2.47;;;;;;;20.04;26.29;101166.75;5071142;28;20512;-58
2022/01/13 05:32:28;;;;;;;3.17;2.33;;;;;;;20.02;26.30;101163.50;5070793;28;20070;-58
2022/01/13 05:34:53;;;;;;;3.20;2.40;;;;;;;20.00;26.21;101157.44;5113267;28;20059;-58
2022/01/13 05:37:18;;;;;;;3.15;2.22;;;;;;;20.03;26.25;101159.56;5131929;28;20043;-58
2022/01/13 05:39:44;;;;;;;3.38;2.30;;;;;;;20.03;26.26;101151.22;5131808;28;20035;-59
2022/01/13 05:42:09;;;;;;;3.58;2.30;;;;;;;20.03;26.28;101156.78;5129789;28;20054;-62
2022/01/13 05:44:38;;;;;;;4.10;2.50;;;;;;;20.03;26.20;101160.38;5131834;28;20046;-63
2022/01/13 05:47:06;;;;;;;3.40;2.38;;;;;;;20.03;26.26;101149.28;5131812;28;20047;-64
2022/01/13 05:49:31;;;;;;;3.05;2.10;;;;;;;20.02;26.29;101158.75;5131678;28;20054;-64
2022/01/13 05:51:56;;;;;;;3.65;2.50;;;;;;;20.22;25.94;101153.69;5131615;28;20039;-63
2022/01/13 05:54:22;;;;;;;3.60;2.50;;;;;;;21.13;25.04;101153.25;5113350;28;20032;-63
2022/01/13 05:56:47;;;;;;;3.92;2.70;;;;;;;22.07;23.95;101149.38;5131389;28;20686;-64
2022/01/13 05:59:13;;;;;;;4.05;2.90;;;;;;;22.65;23.33;101156.72;5131460;28;20495;-63
2022/01/13 06:01:38;;;;;;;3.35;2.22;;;;;;;22.43;24.02;101149.56;5131543;28;20046;-63
2022/01/13 06:04:04;;;;;;;3.45;2.47;;;;;;;22.15;24.08;101142.97;5131328;28;20039;-63
2022/01/13 06:06:29;;;;;;;3.85;2.55;;;;;;;21.89;24.17;101149.53;5131358;28;20051;-63
2022/01/13 06:08:54;;;;;;;3.50;2.30;;;;;;;21.66;24.30;101148.25;5131415;28;20057;-63
2022/01/13 06:11:22;;;;;;;3.80;2.50;;;;;;;21.48;24.63;101146.72;5131222;28;20031;-63
2022/01/13 06:13:48;;;;;;;4.32;2.38;;;;;;;21.30;25.11;101151.59;5131443;28;20039;-64
2022/01/13 06:16:15;;;;;;;6.53;2.28;;;;;;;21.17;25.17;101145.06;5131424;28;20150;-65
2022/01/13 06:18:40;;;;;;;5.40;2.50;;;;;;;21.08;25.29;101150.69;5131498;28;20121;-64
2022/01/13 06:21:06;;;;;;;4.05;2.38;;;;;;;21.00;25.36;101145.94;5131090;28;20134;-65
2022/01/13 06:23:31;;;;;;;4.75;2.38;;;;;;;20.94;25.61;101149.28;5131219;28;20035;-65
2022/01/13 06:25:57;;;;;;;4.25;2.55;;;;;;;20.87;25.66;101145.03;5131180;28;20050;-65
2022/01/13 06:28:23;;;;;;;3.35;2.17;;;;;;;20.81;25.67;101140.00;5131130;28;20444;-64
2022/01/13 06:30:49;;;;;;;4.72;2.38;;;;;;;20.76;25.60;101140.97;5131119;28;20074;-64
2022/01/13 06:33:14;;;;;;;5.07;2.47;;;;;;;20.73;25.70;101160.31;5130938;28;20139;-64
2022/01/13 06:35:40;;;;;;;3.40;2.38;;;;;;;20.70;25.73;101160.97;5130722;28;20085;-65
2022/01/13 06:38:06;;;;;;;3.35;2.20;;;;;;;20.67;25.87;101164.41;5130500;27;20445;-64
2022/01/13 06:40:31;;;;;;;4.05;2.42;;;;;;;20.63;25.91;101155.09;5130357;28;20051;-64
2022/01/13 06:42:57;;;;;;;3.72;2.42;;;;;;;20.61;26.04;101161.00;5130392;28;20047;-64
2022/01/13 06:45:22;;;;;;;3.72;2.35;;;;;;;20.58;25.79;101164.44;5130463;28;20035;-64
2022/01/13 06:47:48;;;;;;;3.42;2.20;;;;;;;20.57;25.83;101171.13;5130440;28;20118;-64
2022/01/13 06:50:13;;;;;;;3.50;2.20;;;;;;;20.56;25.83;101167.53;5130110;28;20145;-64
2022/01/13 06:52:39;;;;;;;3.30;2.30;;;;;;;20.54;25.97;101171.78;5129949;28;20104;-64
2022/01/13 06:55:06;;;;;;;3.40;2.38;;;;;;;20.52;25.97;101171.31;5130188;28;20433;-64
2022/01/13 06:57:33;;;;;;;3.70;2.30;;;;;;;20.51;26.01;101170.50;5130419;28;20071;-57
2022/01/13 06:59:58;;;;;;;3.45;2.13;;;;;;;20.51;25.97;101178.03;5129691;28;20057;-58
2022/01/13 07:02:26;;;;;;;3.45;2.17;;;;;;;20.48;26.16;101176.72;5130037;28;20126;-59
2022/01/13 07:04:51;;;;;;;4.32;2.47;;;;;;;20.49;26.02;101183.91;5130060;28;20065;-65
2022/01/13 07:07:17;;;;;;;3.42;2.20;;;;;;;20.48;26.05;101184.22;5130072;28;20421;-65
2022/01/13 07:09:43;;;;;;;3.67;2.42;;;;;;;20.47;26.06;101186.19;5130096;28;20047;-65
2022/01/13 07:12:09;;;;;;;5.53;2.45;;;;;;;20.47;26.08;101177.84;5129426;28;20129;-65
2022/01/13 07:14:35;;;;;;;3.95;2.63;;;;;;;20.47;25.91;101180.63;5129748;28;20051;-65
2022/01/13 07:17:00;;;;;;;4.68;2.47;;;;;;;20.46;25.94;101179.00;5129628;28;20031;-65
2022/01/13 07:19:26;;;;;;;4.03;2.80;;;;;;;20.46;26.02;101189.31;5129710;28;20428;-58
2022/01/13 07:21:51;;;;;;;3.47;2.40;;;;;;;20.45;25.96;101188.50;5129812;28;20070;-58
2022/01/13 07:24:17;;;;;;;3.38;2.33;;;;;;;20.44;26.16;101186.88;5129942;28;20031;-58
2022/01/13 07:26:43;;;;;;;3.70;2.42;;;;;;;20.45;25.97;101184.91;5129638;28;20472;-58
2022/01/13 07:29:09;;;;;;;4.10;2.60;;;;;;;20.43;26.02;101181.59;5129770;28;20035;-60
2022/01/13 07:31:36;;;;;;;3.50;2.50;;;;;;;20.44;26.11;101177.69;5129803;28;20047;-58
2022/01/13 07:34:02;;;;;;;4.35;2.80;;;;;;;20.43;26.03;101178.81;5129796;28;20406;-58
2022/01/13 07:36:28;;;;;;;3.75;2.60;;;;;;;20.42;25.90;101177.19;5129670;28;20491;-58
2022/01/13 07:38:53;;;;;;;3.80;2.50;;;;;;;20.44;26.04;101180.47;5129648;28;20131;-58
2022/01/13 07:41:19;;;;;;;3.97;2.70;;;;;;;20.42;26.14;101177.19;5129576;28;20058;-58
2022/01/13 07:43:48;;;;;;;4.18;2.50;;;;;;;20.42;26.11;101174.41;5129927;28;20039;-58
2022/01/13 07:46:14;;;;;;;3.67;2.40;;;;;;;20.42;26.08;101171.63;5129660;28;20190;-58
2022/01/13 07:48:39;;;;;;;3.58;2.40;;;;;;;20.43;26.01;101178.81;5126927;27;20498;-58
2022/01/13 07:51:05;;;;;;;4.43;2.70;;;;;;;20.41;26.14;101175.53;5127261;28;20455;-58
2022/01/13 07:53:31;;;;;;;3.67;2.50;;;;;;;20.42;25.94;101193.84;5129362;28;20035;-58
2022/01/13 07:55:56;;;;;;;3.92;2.50;;;;;;;20.43;26.00;101195.47;5129478;28;20054;-59
2022/01/13 07:58:22;;;;;;;5.90;2.83;;;;;;;20.43;26.25;101192.69;5126637;28;20085;-58
2022/01/13 08:00:47;;;;;;;3.80;2.60;;;;;;;20.67;26.01;101195.00;5113296;28;20434;-58
2022/01/13 08:03:13;;;;;;;3.85;2.85;;;;;;;21.37;24.95;101197.22;5128029;28;20039;-59
2022/01/13 08:05:39;;;;;;;3.97;3.00;;;;;;;22.22;24.33;101196.19;5128758;28;20039;-65
2022/01/13 08:08:04;;;;;;;4.35;3.00;;;;;;;22.89;23.43;101191.44;5128456;28;20494;-65
2022/01/13 08:10:30;;;;;;;4.43;2.88;;;;;;;23.25;23.01;101191.47;5128319;28;20039;-65
2022/01/13 08:12:55;;;;;;;4.03;2.90;;;;;;;23.60;22.48;101197.44;5127961;28;20039;-65
2022/01/13 08:15:21;;;;;;;4.45;3.28;;;;;;;23.85;22.15;101200.16;5125927;28;20043;-66
2022/01/13 08:20:32;;;;;;;4.68;3.17;;;;;;;24.33;21.70;101204.03;5127535;28;20541;-65
2022/01/13 08:22:58;;;;;;;4.38;3.22;;;;;;;24.59;21.79;101207.19;5127008;28;20035;-65
2022/01/13 08:25:24;;;;;;;4.90;3.10;;;;;;;24.58;21.93;101208.34;5128254;28;20043;-64
2022/01/13 08:27:50;;;;;;;3.60;2.50;;;;;;;24.07;22.74;101212.81;5120411;28;20038;-66
2022/01/13 08:30:16;;;;;;;3.78;2.80;;;;;;;23.63;23.12;101223.03;5108159;28;20051;-66
2022/01/13 08:32:42;;;;;;;4.25;2.88;;;;;;;23.23;23.41;101220.91;5116140;27;20035;-59
2022/01/13 08:35:08;;;;;;;4.30;2.92;;;;;;;22.91;23.63;101214.22;5132030;27;20040;-60
2022/01/13 08:37:34;;;;;;;6.22;3.00;;;;;;;22.62;23.83;101217.94;5126451;28;20084;-62
2022/01/13 08:40:06;;;;;;;4.88;2.90;;;;;;;22.37;24.30;101223.44;5127196;28;20043;-62
2022/01/13 08:42:33;;;;;;;4.13;3.10;;;;;;;22.19;24.36;101230.28;5125949;28;20042;-63
2022/01/13 08:44:59;;;;;;;4.90;3.17;;;;;;;22.00;24.58;101230.72;5121792;28;20089;-62
2022/01/13 08:47:26;;;;;;;7.30;3.83;;;;;;;21.84;24.76;101227.72;5112821;28;20047;-62
2022/01/13 08:49:51;;;;;;;6.95;3.72;;;;;;;21.71;25.03;101223.22;5120184;28;20050;-62
2022/01/13 08:52:17;;;;;;;4.35;3.25;;;;;;;21.61;25.16;101223.63;5124026;27;20047;-63
2022/01/13 08:54:45;;;;;;;4.97;3.05;;;;;;;21.50;25.10;101217.59;5130453;28;20040;-63
2022/01/13 08:57:11;;;;;;;7.82;3.50;;;;;;;21.41;25.15;101214.06;5124099;28;20055;-63
2022/01/13 08:59:36;;;;;;;5.78;3.50;;;;;;;21.33;25.18;101210.16;5109970;28;20971;-64
2022/01/13 09:02:02;;;;;;;6.03;3.40;;;;;;;21.25;25.50;101202.66;5128777;28;20512;-64
2022/01/13 09:04:27;;;;;;;6.88;3.50;;;;;;;21.21;25.39;101203.63;5115853;27;20549;-65
2022/01/13 09:06:53;;;;;;;5.57;3.28;;;;;;;21.16;25.32;101197.13;5117552;27;20050;-64
2022/01/13 09:09:18;;;;;;;6.05;3.90;;;;;;;21.07;25.40;101187.97;5115192;28;20051;-65
2022/01/13 09:11:44;;;;;;;6.78;4.55;;;;;;;21.02;25.50;101196.53;5116273;27;21000;-65
2022/01/13 09:14:09;;;;;;;6.22;4.15;;;;;;;21.01;25.62;101205.22;5119511;27;20035;-64
2022/01/13 09:16:42;;;;;;;8.77;4.30;;;;;;;21.01;25.84;101208.00;5126730;27;20532;-64
2022/01/13 09:19:13;;;;;;;7.63;4.07;;;;;;;21.35;25.63;101210.63;5127816;28;20047;-63
2022/01/13 09:21:42;;;;;;;24.08;4.70;;;;;;;22.25;24.97;101201.06;5123616;28;20039;-66
2022/01/13 09:24:15;;;;;;;13.48;4.40;;;;;;;23.03;24.11;101198.31;5117973;28;20043;-66
2022/01/13 09:26:44;;;;;;;14.13;3.83;;;;;;;23.60;23.40;101211.38;5121972;28;20047;-69
2022/01/13 09:29:10;;;;;;;12.57;4.72;;;;;;;23.93;23.13;101220.75;5122134;28;20043;-65
2022/01/13 09:31:38;;;;;;;11.57;4.10;;;;;;;24.19;22.77;101215.56;5124423;27;20130;-64
2022/01/13 09:34:05;;;;;;;12.20;3.85;;;;;;;24.39;22.68;101222.19;5124169;28;20578;-71
2022/01/13 09:36:31;;;;;;;7.30;3.78;;;;;;;24.69;22.25;101217.84;5124122;27;20061;-72
2022/01/13 09:38:59;;;;;;;5.88;3.72;;;;;;;24.83;22.33;101228.63;5123684;27;20419;-68
2022/01/13 09:41:29;;;;;;;12.63;3.55;;;;;;;24.58;22.41;101227.13;5125268;28;20142;-60
2022/01/13 09:43:55;;;;;;;10.30;3.80;;;;;;;24.10;22.60;101232.50;5121598;28;20438;-58
2022/01/13 09:46:22;;;;;;;9.43;4.00;;;;;;;23.72;23.28;101230.13;5116856;27;20134;-57
2022/01/13 09:48:49;;;;;;;8.70;3.35;;;;;;;23.40;23.87;101229.03;5122672;27;20035;-58
2022/01/13 09:51:15;;;;;;;8.07;3.17;;;;;;;23.15;24.26;101230.22;5118437;28;20046;-57
2022/01/13 09:53:40;;;;;;;6.85;2.95;;;;;;;22.91;24.66;101228.97;5120829;28;20043;-57
2022/01/13 09:56:07;;;;;;;6.25;3.13;;;;;;;22.70;25.12;101220.63;5115076;27;20058;-57
2022/01/13 09:58:32;;;;;;;5.88;3.33;;;;;;;22.52;25.43;101225.59;5131525;27;20039;-58
2022/01/13 10:00:58;;;;;;;5.70;3.05;;;;;;;22.38;25.42;101213.91;5119290;27;20036;-59
2022/01/13 10:03:27;;;;;;;7.28;3.15;;;;;;;22.23;25.93;101207.00;5125435;27;20039;-58
2022/01/13 10:05:58;;;;;;;6.13;3.05;;;;;;;22.11;25.64;101206.09;5127089;27;20116;-57
2022/01/13 10:08:39;;;;;;;5.03;3.05;;;;;;;21.99;25.77;101207.63;5127616;27;20057;-60
2022/01/13 10:11:23;;;;;;;6.85;4.43;;;;;;;21.87;25.09;101203.97;5116612;27;20055;-60
2022/01/13 10:14:02;;;;;;;7.55;4.40;;;;;;;21.73;25.30;101193.09;5121878;28;20047;-58
2022/01/13 10:16:28;;;;;;;7.93;4.72;;;;;;;21.67;25.13;101206.38;5118901;27;20051;-58
2022/01/13 10:18:54;;;;;;;8.30;4.20;;;;;;;21.59;25.19;101198.09;5118078;28;20392;-57
2022/01/13 10:21:21;;;;;;;6.50;3.58;;;;;;;21.54;25.32;101199.09;5122599;27;20050;-57
2022/01/13 10:24:03;;;;;;;5.53;3.53;;;;;;;21.48;25.49;101191.25;5118381;28;20040;-59
2022/01/13 10:26:30;;;;;;;8.38;3.50;;;;;;;21.44;25.62;101193.91;5125637;28;20096;-58
2022/01/13 10:28:56;;;;;;;5.32;3.60;;;;;;;21.39;25.75;101183.78;5127520;28;20575;-59
2022/01/13 10:31:22;;;;;;;4.65;2.92;;;;;;;21.38;25.58;101186.91;5111349;27;20088;-58
2022/01/13 10:33:47;;;;;;;5.10;3.42;;;;;;;21.33;25.73;101171.19;5123027;27;20082;-57
2022/01/13 10:36:14;;;;;;;6.63;3.13;;;;;;;21.32;25.83;101177.09;5123084;28;20093;-58
2022/01/13 10:39:05;;;;;;;4.25;3.03;;;;;;;21.30;25.95;101176.63;5125918;27;20043;-58
2022/01/13 10:44:23;;;;;;;4.82;3.22;;;;;;;21.26;25.89;101161.72;5118766;27;20039;-58
2022/01/13 10:47:03;;;;;;;4.63;3.38;;;;;;;21.27;26.21;101164.16;5127727;28;20100;-60
2022/01/13 10:49:38;;;;;;;5.25;3.17;;;;;;;21.27;26.15;101166.94;5117138;27;20067;-60
2022/01/13 10:52:26;;;;;;;5.53;3.28;;;;;;;21.27;25.89;101158.59;5115670;27;20628;-59
2022/01/13 10:55:00;;;;;;;4.53;3.03;;;;;;;21.26;26.37;101156.97;5129763;27;20142;-63
2022/01/13 10:57:27;;;;;;;4.38;2.90;;;;;;;21.26;26.21;101145.84;5123589;28;20051;-60
2022/01/13 10:59:53;;;;;;;5.10;3.00;;;;;;;21.25;26.35;101154.53;5125780;27;20043;-59
2022/01/13 11:02:20;;;;;;;5.10;3.60;;;;;;;21.22;25.78;101153.25;5123909;27;20051;-63
2022/01/13 11:04:46;;;;;;;4.97;3.42;;;;;;;21.22;25.71;101155.19;5124581;27;20048;-63
2022/01/13 11:07:14;;;;;;;7.30;3.50;;;;;;;21.13;25.92;101131.00;5127714;28;20039;-63
2022/01/13 11:09:43;;;;;;;4.18;3.10;;;;;;;21.16;25.95;101143.44;5127505;27;20527;-62
2022/01/13 11:12:11;;;;;;;5.25;2.97;;;;;;;21.15;26.10;101148.19;5140857;27;20119;-63
2022/01/13 11:14:43;;;;;;;4.82;2.95;;;;;;;21.14;25.90;101143.75;5120833;27;20051;-63
2022/01/13 11:17:11;;;;;;;4.13;2.83;;;;;;;21.13;25.87;101146.88;5117548;28;20039;-62
2022/01/13 11:19:44;;;;;;;5.32;3.22;;;;;;;21.11;25.83;101140.84;5111335;27;20305;-62
2022/01/13 11:22:12;;;;;;;6.32;3.13;;;;;;;21.09;25.81;101137.59;5112841;28;20040;-62
2022/01/13 11:24:38;;;;;;;4.20;2.70;;;;;;;21.08;26.12;101139.56;5116527;27;20039;-60
2022/01/13 11:27:05;;;;;;;4.47;2.92;;;;;;;21.07;25.82;101137.91;5119918;28;20418;-61
2022/01/13 11:29:30;;;;;;;4.28;2.85;;;;;;;21.06;25.84;101136.28;5118405;28;20051;-63
2022/01/13 11:31:57;;;;;;;4.38;3.03;;;;;;;21.07;26.16;101135.13;5119407;28;20091;-62
2022/01/13 11:34:24;;;;;;;4.22;2.97;;;;;;;21.06;26.09;101129.91;5119867;27;20043;-62
2022/01/13 11:36:50;;;;;;;5.57;2.90;;;;;;;21.05;25.93;101126.28;5123421;28;20532;-61
2022/01/13 11:39:16;;;;;;;4.93;3.08;;;;;;;21.06;25.91;101124.31;5123157;27;20118;-63
2022/01/13 11:42:03;;;;;;;4.50;2.90;;;;;;;21.05;26.01;101122.69;5121061;28;20138;-62
2022/01/13 11:44:28;;;;;;;7.25;3.00;;;;;;;21.04;25.82;101121.88;5114335;28;20153;-62
2022/01/13 11:46:56;;;;;;;5.07;2.88;;;;;;;21.04;26.06;101127.44;5124888;27;20106;-64
2022/01/13 11:50:17;;;;;;;8.75;3.00;;;;;;;21.05;26.06;101122.69;5115537;27;20039;-64
2022/01/13 11:54:37;;;;;;;3.88;2.72;;;;;;;21.05;25.93;101111.56;5120181;28;20079;-63
2022/01/13 11:57:22;;;;;;;3.92;2.70;;;;;;;21.03;25.93;101113.88;5115076;28;21097;-62
2022/01/13 11:59:56;;;;;;;3.80;2.50;;;;;;;21.04;25.96;101115.50;5121477;27;20035;-63